sensor_id;sensor_type;location;lat;lon;timestamp;P1;durP1;ratioP1;P2;durP2;ratioP2
56752;SDS011;42627;42.646;23.642;2023-05-21T00:00:41;7.60;;;3.83;;
56752;SDS011;42627;42.646;23.642;2023-05-21T00:02:42;6.93;;;3.72;;
56752;SDS011;42627;42.646;23.642;2023-05-21T00:04:43;9.10;;;4.47;;
56752;SDS011;42627;42.646;23.642;2023-05-21T00:06:44;7.63;;;4.10;;
56752;SDS011;42627;42.646;23.642;2023-05-21T00:08:45;8.77;;;4.43;;
56752;SDS011;42627;42.646;23.642;2023-05-21T00:10:46;7.95;;;3.80;;
56752;SDS011;42627;42.646;23.642;2023-05-21T00:12:47;7.32;;;3.85;;
56752;SDS011;42627;42.646;23.642;2023-05-21T00:14:48;11.23;;;4.43;;
56752;SDS011;42627;42.646;23.642;2023-05-21T00:16:49;7.88;;;4.28;;
56752;SDS011;42627;42.646;23.642;2023-05-21T00:18:50;6.85;;;4.00;;
56752;SDS011;42627;42.646;23.642;2023-05-21T00:20:53;7.22;;;4.00;;
56752;SDS011;42627;42.646;23.642;2023-05-21T00:22:54;8.27;;;3.78;;
56752;SDS011;42627;42.646;23.642;2023-05-21T00:27:32;8.52;;;3.95;;
56752;SDS011;42627;42.646;23.642;2023-05-21T00:29:38;6.65;;;3.85;;
56752;SDS011;42627;42.646;23.642;2023-05-21T00:31:39;9.18;;;3.72;;
56752;SDS011;42627;42.646;23.642;2023-05-21T00:33:40;7.13;;;3.85;;
56752;SDS011;42627;42.646;23.642;2023-05-21T00:35:41;7.38;;;3.33;;
56752;SDS011;42627;42.646;23.642;2023-05-21T00:37:42;6.43;;;3.70;;
56752;SDS011;42627;42.646;23.642;2023-05-21T00:39:43;7.63;;;3.67;;
56752;SDS011;42627;42.646;23.642;2023-05-21T00:41:44;7.15;;;3.45;;
56752;SDS011;42627;42.646;23.642;2023-05-21T00:45:58;5.93;;;3.40;;
56752;SDS011;42627;42.646;23.642;2023-05-21T00:47:59;9.57;;;4.00;;
56752;SDS011;42627;42.646;23.642;2023-05-21T00:50:02;7.95;;;3.75;;
56752;SDS011;42627;42.646;23.642;2023-05-21T00:52:04;6.63;;;3.53;;
56752;SDS011;42627;42.646;23.642;2023-05-21T00:54:06;5.35;;;3.08;;
56752;SDS011;42627;42.646;23.642;2023-05-21T00:56:07;7.78;;;3.20;;
56752;SDS011;42627;42.646;23.642;2023-05-21T00:58:23;7.00;;;3.40;;
56752;SDS011;42627;42.646;23.642;2023-05-21T01:02:56;7.35;;;3.50;;
56752;SDS011;42627;42.646;23.642;2023-05-21T01:04:57;6.65;;;3.67;;
56752;SDS011;42627;42.646;23.642;2023-05-21T01:06:59;6.63;;;3.85;;
56752;SDS011;42627;42.646;23.642;2023-05-21T01:09:01;8.02;;;3.67;;
56752;SDS011;42627;42.646;23.642;2023-05-21T01:11:04;5.95;;;3.83;;
56752;SDS011;42627;42.646;23.642;2023-05-21T01:13:06;6.20;;;3.42;;
56752;SDS011;42627;42.646;23.642;2023-05-21T01:15:07;7.70;;;3.50;;
56752;SDS011;42627;42.646;23.642;2023-05-21T01:17:09;9.05;;;4.50;;
56752;SDS011;42627;42.646;23.642;2023-05-21T01:19:12;6.82;;;3.58;;
56752;SDS011;42627;42.646;23.642;2023-05-21T01:21:15;6.25;;;3.28;;
56752;SDS011;42627;42.646;23.642;2023-05-21T01:23:16;7.30;;;3.72;;
56752;SDS011;42627;42.646;23.642;2023-05-21T01:25:17;6.03;;;3.60;;
56752;SDS011;42627;42.646;23.642;2023-05-21T01:27:18;8.10;;;3.95;;
56752;SDS011;42627;42.646;23.642;2023-05-21T01:29:38;9.20;;;4.28;;
56752;SDS011;42627;42.646;23.642;2023-05-21T01:34:11;10.32;;;5.60;;
56752;SDS011;42627;42.646;23.642;2023-05-21T01:36:23;11.55;;;4.80;;
56752;SDS011;42627;42.646;23.642;2023-05-21T01:38:29;11.27;;;4.75;;
56752;SDS011;42627;42.646;23.642;2023-05-21T01:43:08;9.35;;;4.70;;
56752;SDS011;42627;42.646;23.642;2023-05-21T01:45:09;6.97;;;3.95;;
56752;SDS011;42627;42.646;23.642;2023-05-21T01:49:22;7.25;;;3.60;;
56752;SDS011;42627;42.646;23.642;2023-05-21T01:51:26;7.47;;;3.83;;
56752;SDS011;42627;42.646;23.642;2023-05-21T01:53:27;6.25;;;3.15;;
56752;SDS011;42627;42.646;23.642;2023-05-21T01:55:28;8.38;;;4.15;;
56752;SDS011;42627;42.646;23.642;2023-05-21T01:57:39;9.10;;;3.95;;
56752;SDS011;42627;42.646;23.642;2023-05-21T02:02:18;12.43;;;4.63;;
56752;SDS011;42627;42.646;23.642;2023-05-21T02:04:20;7.75;;;4.32;;
56752;SDS011;42627;42.646;23.642;2023-05-21T02:06:21;9.48;;;4.10;;
56752;SDS011;42627;42.646;23.642;2023-05-21T02:08:22;6.85;;;4.30;;
56752;SDS011;42627;42.646;23.642;2023-05-21T02:10:24;8.65;;;4.53;;
56752;SDS011;42627;42.646;23.642;2023-05-21T02:12:25;7.57;;;4.38;;
56752;SDS011;42627;42.646;23.642;2023-05-21T02:14:27;8.63;;;4.88;;
56752;SDS011;42627;42.646;23.642;2023-05-21T02:16:28;7.75;;;4.35;;
56752;SDS011;42627;42.646;23.642;2023-05-21T02:18:51;10.15;;;3.65;;
56752;SDS011;42627;42.646;23.642;2023-05-21T02:20:56;6.82;;;3.80;;
56752;SDS011;42627;42.646;23.642;2023-05-21T02:22:57;6.47;;;3.95;;
56752;SDS011;42627;42.646;23.642;2023-05-21T02:24:58;7.47;;;3.88;;
56752;SDS011;42627;42.646;23.642;2023-05-21T02:26:59;6.75;;;3.63;;
56752;SDS011;42627;42.646;23.642;2023-05-21T02:29:00;7.47;;;3.75;;
56752;SDS011;42627;42.646;23.642;2023-05-21T02:31:01;10.00;;;5.10;;
56752;SDS011;42627;42.646;23.642;2023-05-21T02:35:41;8.10;;;3.80;;
56752;SDS011;42627;42.646;23.642;2023-05-21T02:38:20;6.88;;;3.80;;
56752;SDS011;42627;42.646;23.642;2023-05-21T02:40:22;6.72;;;3.80;;
56752;SDS011;42627;42.646;23.642;2023-05-21T02:42:24;7.55;;;3.78;;
56752;SDS011;42627;42.646;23.642;2023-05-21T02:44:25;8.40;;;4.13;;
56752;SDS011;42627;42.646;23.642;2023-05-21T02:46:27;9.52;;;3.78;;
56752;SDS011;42627;42.646;23.642;2023-05-21T02:48:28;9.18;;;4.22;;
56752;SDS011;42627;42.646;23.642;2023-05-21T02:50:29;6.93;;;4.18;;
56752;SDS011;42627;42.646;23.642;2023-05-21T02:52:30;7.85;;;4.10;;
56752;SDS011;42627;42.646;23.642;2023-05-21T02:54:31;6.35;;;3.85;;
56752;SDS011;42627;42.646;23.642;2023-05-21T02:56:32;6.50;;;3.75;;
56752;SDS011;42627;42.646;23.642;2023-05-21T02:58:33;8.15;;;3.88;;
56752;SDS011;42627;42.646;23.642;2023-05-21T03:00:34;7.15;;;3.80;;
56752;SDS011;42627;42.646;23.642;2023-05-21T03:02:35;16.58;;;4.13;;
56752;SDS011;42627;42.646;23.642;2023-05-21T03:04:36;7.07;;;3.92;;
56752;SDS011;42627;42.646;23.642;2023-05-21T03:07:03;7.32;;;3.95;;
56752;SDS011;42627;42.646;23.642;2023-05-21T03:09:13;6.25;;;3.38;;
56752;SDS011;42627;42.646;23.642;2023-05-21T03:11:32;8.27;;;4.05;;
56752;SDS011;42627;42.646;23.642;2023-05-21T03:13:33;6.72;;;3.58;;
56752;SDS011;42627;42.646;23.642;2023-05-21T03:15:34;8.50;;;4.10;;
56752;SDS011;42627;42.646;23.642;2023-05-21T03:17:37;6.82;;;3.40;;
56752;SDS011;42627;42.646;23.642;2023-05-21T03:19:41;6.35;;;3.63;;
56752;SDS011;42627;42.646;23.642;2023-05-21T03:21:42;7.00;;;3.35;;
56752;SDS011;42627;42.646;23.642;2023-05-21T03:23:43;6.82;;;3.90;;
56752;SDS011;42627;42.646;23.642;2023-05-21T03:25:45;11.68;;;5.10;;
56752;SDS011;42627;42.646;23.642;2023-05-21T03:27:46;8.20;;;4.30;;
56752;SDS011;42627;42.646;23.642;2023-05-21T03:29:47;9.10;;;4.22;;
56752;SDS011;42627;42.646;23.642;2023-05-21T03:31:49;6.88;;;3.88;;
56752;SDS011;42627;42.646;23.642;2023-05-21T03:33:50;7.68;;;4.10;;
56752;SDS011;42627;42.646;23.642;2023-05-21T03:35:52;6.78;;;3.90;;
56752;SDS011;42627;42.646;23.642;2023-05-21T03:37:53;8.70;;;4.18;;
56752;SDS011;42627;42.646;23.642;2023-05-21T03:39:55;6.78;;;3.67;;
56752;SDS011;42627;42.646;23.642;2023-05-21T03:42:05;6.28;;;3.90;;
56752;SDS011;42627;42.646;23.642;2023-05-21T03:46:43;8.00;;;3.58;;
56752;SDS011;42627;42.646;23.642;2023-05-21T03:48:44;6.18;;;3.58;;
56752;SDS011;42627;42.646;23.642;2023-05-21T03:50:45;9.35;;;3.85;;
56752;SDS011;42627;42.646;23.642;2023-05-21T03:52:46;8.88;;;3.72;;
56752;SDS011;42627;42.646;23.642;2023-05-21T03:54:47;6.95;;;4.18;;
56752;SDS011;42627;42.646;23.642;2023-05-21T03:56:48;6.80;;;3.90;;
56752;SDS011;42627;42.646;23.642;2023-05-21T03:58:49;7.53;;;3.83;;
56752;SDS011;42627;42.646;23.642;2023-05-21T04:03:02;7.72;;;3.22;;
56752;SDS011;42627;42.646;23.642;2023-05-21T04:05:03;6.38;;;3.53;;
56752;SDS011;42627;42.646;23.642;2023-05-21T04:07:06;8.27;;;3.58;;
56752;SDS011;42627;42.646;23.642;2023-05-21T04:09:13;11.43;;;4.40;;
56752;SDS011;42627;42.646;23.642;2023-05-21T04:11:15;9.82;;;5.05;;
56752;SDS011;42627;42.646;23.642;2023-05-21T04:13:16;8.88;;;4.88;;
56752;SDS011;42627;42.646;23.642;2023-05-21T04:15:17;8.55;;;4.80;;
56752;SDS011;42627;42.646;23.642;2023-05-21T04:17:18;8.95;;;4.90;;
56752;SDS011;42627;42.646;23.642;2023-05-21T04:19:38;7.35;;;4.05;;
56752;SDS011;42627;42.646;23.642;2023-05-21T04:21:46;9.15;;;5.38;;
56752;SDS011;42627;42.646;23.642;2023-05-21T04:23:47;9.88;;;5.35;;
56752;SDS011;42627;42.646;23.642;2023-05-21T04:25:48;10.80;;;5.38;;
56752;SDS011;42627;42.646;23.642;2023-05-21T04:27:49;9.10;;;5.03;;
56752;SDS011;42627;42.646;23.642;2023-05-21T04:29:51;8.88;;;5.55;;
56752;SDS011;42627;42.646;23.642;2023-05-21T04:32:03;10.77;;;5.35;;
56752;SDS011;42627;42.646;23.642;2023-05-21T04:34:04;11.00;;;5.63;;
56752;SDS011;42627;42.646;23.642;2023-05-21T04:36:05;9.70;;;5.25;;
56752;SDS011;42627;42.646;23.642;2023-05-21T04:38:09;9.68;;;5.82;;
56752;SDS011;42627;42.646;23.642;2023-05-21T04:40:11;12.45;;;6.07;;
56752;SDS011;42627;42.646;23.642;2023-05-21T04:42:17;11.80;;;5.65;;
56752;SDS011;42627;42.646;23.642;2023-05-21T04:44:18;11.70;;;6.20;;
56752;SDS011;42627;42.646;23.642;2023-05-21T04:48:30;13.98;;;6.30;;
56752;SDS011;42627;42.646;23.642;2023-05-21T04:50:31;14.55;;;5.85;;
56752;SDS011;42627;42.646;23.642;2023-05-21T04:52:32;14.55;;;5.78;;
56752;SDS011;42627;42.646;23.642;2023-05-21T04:54:33;12.95;;;5.65;;
56752;SDS011;42627;42.646;23.642;2023-05-21T04:56:35;10.63;;;6.25;;
56752;SDS011;42627;42.646;23.642;2023-05-21T04:58:36;11.82;;;5.32;;
56752;SDS011;42627;42.646;23.642;2023-05-21T05:00:39;11.27;;;6.15;;
56752;SDS011;42627;42.646;23.642;2023-05-21T05:02:59;10.25;;;6.63;;
56752;SDS011;42627;42.646;23.642;2023-05-21T05:05:15;12.50;;;5.97;;
56752;SDS011;42627;42.646;23.642;2023-05-21T05:07:34;9.65;;;5.63;;
56752;SDS011;42627;42.646;23.642;2023-05-21T05:09:36;11.82;;;6.65;;
56752;SDS011;42627;42.646;23.642;2023-05-21T05:11:37;11.32;;;6.07;;
56752;SDS011;42627;42.646;23.642;2023-05-21T05:13:46;12.85;;;6.13;;
56752;SDS011;42627;42.646;23.642;2023-05-21T05:15:47;11.30;;;6.13;;
56752;SDS011;42627;42.646;23.642;2023-05-21T05:17:48;11.80;;;6.57;;
56752;SDS011;42627;42.646;23.642;2023-05-21T05:19:49;12.02;;;6.40;;
56752;SDS011;42627;42.646;23.642;2023-05-21T05:21:57;10.48;;;6.18;;
56752;SDS011;42627;42.646;23.642;2023-05-21T05:23:58;11.73;;;6.20;;
56752;SDS011;42627;42.646;23.642;2023-05-21T05:25:59;9.98;;;6.47;;
56752;SDS011;42627;42.646;23.642;2023-05-21T05:28:00;20.20;;;6.13;;
56752;SDS011;42627;42.646;23.642;2023-05-21T05:30:01;10.73;;;5.63;;
56752;SDS011;42627;42.646;23.642;2023-05-21T05:37:04;12.07;;;5.50;;
56752;SDS011;42627;42.646;23.642;2023-05-21T05:39:05;12.27;;;6.45;;
56752;SDS011;42627;42.646;23.642;2023-05-21T05:41:06;9.95;;;6.03;;
56752;SDS011;42627;42.646;23.642;2023-05-21T05:43:07;9.93;;;5.72;;
56752;SDS011;42627;42.646;23.642;2023-05-21T05:45:08;10.48;;;6.30;;
56752;SDS011;42627;42.646;23.642;2023-05-21T05:47:10;10.52;;;5.90;;
56752;SDS011;42627;42.646;23.642;2023-05-21T05:49:10;12.55;;;6.90;;
56752;SDS011;42627;42.646;23.642;2023-05-21T05:53:36;10.98;;;6.05;;
56752;SDS011;42627;42.646;23.642;2023-05-21T05:55:37;11.52;;;6.45;;
56752;SDS011;42627;42.646;23.642;2023-05-21T05:57:38;12.05;;;5.80;;
56752;SDS011;42627;42.646;23.642;2023-05-21T05:59:39;10.55;;;6.78;;
56752;SDS011;42627;42.646;23.642;2023-05-21T06:06:34;14.23;;;7.07;;
56752;SDS011;42627;42.646;23.642;2023-05-21T06:08:35;11.80;;;7.32;;
56752;SDS011;42627;42.646;23.642;2023-05-21T06:10:38;12.48;;;6.53;;
56752;SDS011;42627;42.646;23.642;2023-05-21T06:12:39;13.27;;;7.57;;
56752;SDS011;42627;42.646;23.642;2023-05-21T06:14:40;11.98;;;6.35;;
56752;SDS011;42627;42.646;23.642;2023-05-21T06:16:41;8.50;;;4.57;;
56752;SDS011;42627;42.646;23.642;2023-05-21T06:18:42;9.38;;;4.82;;
56752;SDS011;42627;42.646;23.642;2023-05-21T06:20:43;9.30;;;4.30;;
56752;SDS011;42627;42.646;23.642;2023-05-21T06:22:44;9.10;;;5.22;;
56752;SDS011;42627;42.646;23.642;2023-05-21T06:24:45;10.57;;;5.35;;
56752;SDS011;42627;42.646;23.642;2023-05-21T06:26:46;10.27;;;5.40;;
56752;SDS011;42627;42.646;23.642;2023-05-21T06:28:48;11.45;;;4.95;;
56752;SDS011;42627;42.646;23.642;2023-05-21T06:30:49;7.85;;;4.20;;
56752;SDS011;42627;42.646;23.642;2023-05-21T06:32:52;10.60;;;5.22;;
56752;SDS011;42627;42.646;23.642;2023-05-21T06:34:59;9.52;;;4.80;;
56752;SDS011;42627;42.646;23.642;2023-05-21T06:37:18;9.77;;;5.07;;
56752;SDS011;42627;42.646;23.642;2023-05-21T06:39:25;6.80;;;4.00;;
56752;SDS011;42627;42.646;23.642;2023-05-21T06:41:26;7.55;;;4.18;;
56752;SDS011;42627;42.646;23.642;2023-05-21T06:43:27;6.93;;;4.38;;
56752;SDS011;42627;42.646;23.642;2023-05-21T06:45:28;7.80;;;3.60;;
56752;SDS011;42627;42.646;23.642;2023-05-21T06:47:47;5.63;;;3.50;;
56752;SDS011;42627;42.646;23.642;2023-05-21T06:49:57;6.82;;;3.30;;
56752;SDS011;42627;42.646;23.642;2023-05-21T06:52:02;6.20;;;3.17;;
56752;SDS011;42627;42.646;23.642;2023-05-21T06:54:03;6.43;;;2.83;;
56752;SDS011;42627;42.646;23.642;2023-05-21T06:56:04;5.82;;;2.70;;
56752;SDS011;42627;42.646;23.642;2023-05-21T06:58:05;5.43;;;2.97;;
56752;SDS011;42627;42.646;23.642;2023-05-21T07:00:06;5.03;;;3.10;;
56752;SDS011;42627;42.646;23.642;2023-05-21T07:02:08;5.10;;;2.83;;
56752;SDS011;42627;42.646;23.642;2023-05-21T07:04:09;5.55;;;2.47;;
56752;SDS011;42627;42.646;23.642;2023-05-21T07:06:15;6.43;;;2.80;;
56752;SDS011;42627;42.646;23.642;2023-05-21T07:08:16;6.57;;;2.20;;
56752;SDS011;42627;42.646;23.642;2023-05-21T07:10:18;6.78;;;2.85;;
56752;SDS011;42627;42.646;23.642;2023-05-21T07:12:19;7.25;;;2.80;;
56752;SDS011;42627;42.646;23.642;2023-05-21T07:14:20;4.82;;;2.45;;
56752;SDS011;42627;42.646;23.642;2023-05-21T07:18:56;5.13;;;2.72;;
56752;SDS011;42627;42.646;23.642;2023-05-21T07:20:57;9.05;;;3.08;;
56752;SDS011;42627;42.646;23.642;2023-05-21T07:22:58;5.95;;;2.58;;
56752;SDS011;42627;42.646;23.642;2023-05-21T07:24:59;5.97;;;2.53;;
56752;SDS011;42627;42.646;23.642;2023-05-21T07:27:00;5.25;;;2.28;;
56752;SDS011;42627;42.646;23.642;2023-05-21T07:29:02;6.07;;;2.97;;
56752;SDS011;42627;42.646;23.642;2023-05-21T07:31:03;5.57;;;2.50;;
56752;SDS011;42627;42.646;23.642;2023-05-21T07:33:04;4.97;;;2.58;;
56752;SDS011;42627;42.646;23.642;2023-05-21T07:35:05;6.45;;;2.63;;
56752;SDS011;42627;42.646;23.642;2023-05-21T07:37:06;9.45;;;2.53;;
56752;SDS011;42627;42.646;23.642;2023-05-21T07:39:07;8.02;;;2.78;;
56752;SDS011;42627;42.646;23.642;2023-05-21T07:41:08;7.32;;;2.50;;
56752;SDS011;42627;42.646;23.642;2023-05-21T07:43:10;5.38;;;2.45;;
56752;SDS011;42627;42.646;23.642;2023-05-21T07:45:12;7.30;;;2.28;;
56752;SDS011;42627;42.646;23.642;2023-05-21T07:47:13;7.95;;;2.20;;
56752;SDS011;42627;42.646;23.642;2023-05-21T07:49:14;5.38;;;2.80;;
56752;SDS011;42627;42.646;23.642;2023-05-21T07:51:17;5.47;;;2.65;;
56752;SDS011;42627;42.646;23.642;2023-05-21T07:53:18;6.40;;;2.72;;
56752;SDS011;42627;42.646;23.642;2023-05-21T07:55:31;4.55;;;2.30;;
56752;SDS011;42627;42.646;23.642;2023-05-21T07:57:32;5.35;;;2.42;;
56752;SDS011;42627;42.646;23.642;2023-05-21T07:59:34;6.30;;;2.60;;
56752;SDS011;42627;42.646;23.642;2023-05-21T08:01:35;7.90;;;2.35;;
56752;SDS011;42627;42.646;23.642;2023-05-21T08:03:36;4.50;;;2.22;;
56752;SDS011;42627;42.646;23.642;2023-05-21T08:05:37;5.75;;;2.63;;
56752;SDS011;42627;42.646;23.642;2023-05-21T08:07:38;6.55;;;2.42;;
56752;SDS011;42627;42.646;23.642;2023-05-21T08:09:39;8.23;;;2.53;;
56752;SDS011;42627;42.646;23.642;2023-05-21T08:11:40;5.90;;;2.20;;
56752;SDS011;42627;42.646;23.642;2023-05-21T08:13:41;5.00;;;2.53;;
56752;SDS011;42627;42.646;23.642;2023-05-21T08:15:42;6.35;;;2.05;;
56752;SDS011;42627;42.646;23.642;2023-05-21T08:17:43;4.55;;;2.17;;
56752;SDS011;42627;42.646;23.642;2023-05-21T08:19:44;7.78;;;2.70;;
56752;SDS011;42627;42.646;23.642;2023-05-21T08:21:45;5.22;;;2.58;;
56752;SDS011;42627;42.646;23.642;2023-05-21T08:23:47;5.53;;;2.08;;
56752;SDS011;42627;42.646;23.642;2023-05-21T08:25:48;6.32;;;2.92;;
56752;SDS011;42627;42.646;23.642;2023-05-21T08:27:49;6.95;;;2.50;;
56752;SDS011;42627;42.646;23.642;2023-05-21T08:29:50;4.30;;;2.10;;
56752;SDS011;42627;42.646;23.642;2023-05-21T08:31:51;6.13;;;2.65;;
56752;SDS011;42627;42.646;23.642;2023-05-21T08:33:53;4.68;;;1.92;;
56752;SDS011;42627;42.646;23.642;2023-05-21T08:35:55;3.85;;;2.08;;
56752;SDS011;42627;42.646;23.642;2023-05-21T08:37:56;6.03;;;2.30;;
56752;SDS011;42627;42.646;23.642;2023-05-21T08:39:58;8.93;;;2.45;;
56752;SDS011;42627;42.646;23.642;2023-05-21T08:42:10;5.82;;;2.47;;
56752;SDS011;42627;42.646;23.642;2023-05-21T08:46:16;6.00;;;2.55;;
56752;SDS011;42627;42.646;23.642;2023-05-21T08:48:21;5.80;;;2.55;;
56752;SDS011;42627;42.646;23.642;2023-05-21T08:50:23;6.15;;;2.65;;
56752;SDS011;42627;42.646;23.642;2023-05-21T08:52:25;5.93;;;2.58;;
56752;SDS011;42627;42.646;23.642;2023-05-21T08:54:31;6.15;;;2.92;;
56752;SDS011;42627;42.646;23.642;2023-05-21T08:56:36;6.60;;;2.55;;
56752;SDS011;42627;42.646;23.642;2023-05-21T08:58:40;13.18;;;3.33;;
56752;SDS011;42627;42.646;23.642;2023-05-21T09:00:42;5.78;;;2.60;;
56752;SDS011;42627;42.646;23.642;2023-05-21T09:02:43;7.40;;;2.00;;
56752;SDS011;42627;42.646;23.642;2023-05-21T09:04:48;7.80;;;2.50;;
56752;SDS011;42627;42.646;23.642;2023-05-21T09:09:26;4.57;;;2.10;;
56752;SDS011;42627;42.646;23.642;2023-05-21T09:11:27;7.28;;;2.42;;
56752;SDS011;42627;42.646;23.642;2023-05-21T09:13:29;3.83;;;1.88;;
56752;SDS011;42627;42.646;23.642;2023-05-21T09:15:31;5.55;;;2.15;;
56752;SDS011;42627;42.646;23.642;2023-05-21T09:17:32;4.80;;;1.90;;
56752;SDS011;42627;42.646;23.642;2023-05-21T09:19:34;3.45;;;1.58;;
56752;SDS011;42627;42.646;23.642;2023-05-21T09:21:35;6.05;;;2.03;;
56752;SDS011;42627;42.646;23.642;2023-05-21T09:23:39;4.90;;;1.98;;
56752;SDS011;42627;42.646;23.642;2023-05-21T09:25:40;4.80;;;1.87;;
56752;SDS011;42627;42.646;23.642;2023-05-21T09:27:41;3.80;;;1.90;;
56752;SDS011;42627;42.646;23.642;2023-05-21T09:29:42;5.28;;;1.92;;
56752;SDS011;42627;42.646;23.642;2023-05-21T09:31:43;4.22;;;2.10;;
56752;SDS011;42627;42.646;23.642;2023-05-21T09:33:48;5.57;;;2.38;;
56752;SDS011;42627;42.646;23.642;2023-05-21T09:38:37;6.13;;;1.60;;
56752;SDS011;42627;42.646;23.642;2023-05-21T09:40:41;6.30;;;2.00;;
56752;SDS011;42627;42.646;23.642;2023-05-21T09:42:49;3.60;;;2.00;;
56752;SDS011;42627;42.646;23.642;2023-05-21T09:44:50;7.28;;;2.08;;
56752;SDS011;42627;42.646;23.642;2023-05-21T09:46:56;3.25;;;1.65;;
56752;SDS011;42627;42.646;23.642;2023-05-21T09:49:00;7.20;;;2.15;;
56752;SDS011;42627;42.646;23.642;2023-05-21T09:55:30;6.72;;;2.35;;
56752;SDS011;42627;42.646;23.642;2023-05-21T09:57:31;5.53;;;1.88;;
56752;SDS011;42627;42.646;23.642;2023-05-21T09:59:35;3.80;;;1.90;;
56752;SDS011;42627;42.646;23.642;2023-05-21T10:01:37;6.63;;;2.05;;
56752;SDS011;42627;42.646;23.642;2023-05-21T10:03:44;5.60;;;1.75;;
56752;SDS011;42627;42.646;23.642;2023-05-21T10:05:59;4.38;;;1.98;;
56752;SDS011;42627;42.646;23.642;2023-05-21T10:08:18;5.72;;;2.22;;
56752;SDS011;42627;42.646;23.642;2023-05-21T10:10:22;2.63;;;1.73;;
56752;SDS011;42627;42.646;23.642;2023-05-21T10:12:23;6.97;;;1.88;;
56752;SDS011;42627;42.646;23.642;2023-05-21T10:14:25;5.05;;;1.90;;
56752;SDS011;42627;42.646;23.642;2023-05-21T10:16:27;4.20;;;2.10;;
56752;SDS011;42627;42.646;23.642;2023-05-21T10:18:29;4.50;;;1.73;;
56752;SDS011;42627;42.646;23.642;2023-05-21T10:20:31;4.35;;;2.17;;
56752;SDS011;42627;42.646;23.642;2023-05-21T10:22:33;6.85;;;2.40;;
56752;SDS011;42627;42.646;23.642;2023-05-21T10:24:34;5.80;;;2.25;;
56752;SDS011;42627;42.646;23.642;2023-05-21T10:26:37;5.65;;;2.42;;
56752;SDS011;42627;42.646;23.642;2023-05-21T10:28:38;4.00;;;1.98;;
56752;SDS011;42627;42.646;23.642;2023-05-21T10:30:39;4.72;;;2.40;;
56752;SDS011;42627;42.646;23.642;2023-05-21T10:32:41;4.38;;;2.20;;
56752;SDS011;42627;42.646;23.642;2023-05-21T10:34:42;6.38;;;2.50;;
56752;SDS011;42627;42.646;23.642;2023-05-21T10:36:44;5.07;;;2.35;;
56752;SDS011;42627;42.646;23.642;2023-05-21T10:38:51;5.07;;;2.00;;
56752;SDS011;42627;42.646;23.642;2023-05-21T10:40:52;4.10;;;2.15;;
56752;SDS011;42627;42.646;23.642;2023-05-21T10:55:06;5.80;;;2.40;;
56752;SDS011;42627;42.646;23.642;2023-05-21T10:59:42;7.20;;;2.55;;
56752;SDS011;42627;42.646;23.642;2023-05-21T11:01:45;3.47;;;1.92;;
56752;SDS011;42627;42.646;23.642;2023-05-21T11:03:46;5.28;;;2.20;;
56752;SDS011;42627;42.646;23.642;2023-05-21T11:14:38;5.30;;;2.05;;
56752;SDS011;42627;42.646;23.642;2023-05-21T11:16:43;6.65;;;2.03;;
56752;SDS011;42627;42.646;23.642;2023-05-21T11:20:49;5.18;;;2.30;;
56752;SDS011;42627;42.646;23.642;2023-05-21T11:23:05;6.57;;;2.15;;
56752;SDS011;42627;42.646;23.642;2023-05-21T11:29:55;7.10;;;2.05;;
56752;SDS011;42627;42.646;23.642;2023-05-21T11:31:59;3.60;;;2.00;;
56752;SDS011;42627;42.646;23.642;2023-05-21T11:34:11;8.07;;;2.47;;
56752;SDS011;42627;42.646;23.642;2023-05-21T11:36:16;3.95;;;1.80;;
56752;SDS011;42627;42.646;23.642;2023-05-21T11:38:17;4.88;;;2.45;;
56752;SDS011;42627;42.646;23.642;2023-05-21T11:40:18;6.38;;;2.38;;
56752;SDS011;42627;42.646;23.642;2023-05-21T11:44:40;5.55;;;2.65;;
56752;SDS011;42627;42.646;23.642;2023-05-21T11:46:47;6.22;;;2.10;;
56752;SDS011;42627;42.646;23.642;2023-05-21T11:48:48;7.38;;;3.03;;
56752;SDS011;42627;42.646;23.642;2023-05-21T11:50:50;5.45;;;2.00;;
56752;SDS011;42627;42.646;23.642;2023-05-21T11:52:54;5.03;;;2.40;;
56752;SDS011;42627;42.646;23.642;2023-05-21T11:57:51;4.00;;;2.35;;
56752;SDS011;42627;42.646;23.642;2023-05-21T11:59:52;4.70;;;2.55;;
56752;SDS011;42627;42.646;23.642;2023-05-21T12:01:53;3.30;;;2.00;;
56752;SDS011;42627;42.646;23.642;2023-05-21T12:03:55;4.38;;;2.33;;
56752;SDS011;42627;42.646;23.642;2023-05-21T12:06:03;5.90;;;2.30;;
56752;SDS011;42627;42.646;23.642;2023-05-21T12:08:05;3.63;;;2.00;;
56752;SDS011;42627;42.646;23.642;2023-05-21T12:10:07;3.65;;;1.73;;
56752;SDS011;42627;42.646;23.642;2023-05-21T12:14:19;4.68;;;2.15;;
56752;SDS011;42627;42.646;23.642;2023-05-21T12:16:21;5.03;;;2.20;;
56752;SDS011;42627;42.646;23.642;2023-05-21T12:18:22;4.25;;;2.45;;
56752;SDS011;42627;42.646;23.642;2023-05-21T12:20:26;4.53;;;2.00;;
56752;SDS011;42627;42.646;23.642;2023-05-21T12:22:28;6.38;;;2.60;;
56752;SDS011;42627;42.646;23.642;2023-05-21T12:24:29;5.75;;;2.58;;
56752;SDS011;42627;42.646;23.642;2023-05-21T12:26:33;4.82;;;2.20;;
56752;SDS011;42627;42.646;23.642;2023-05-21T12:31:15;5.05;;;2.17;;
56752;SDS011;42627;42.646;23.642;2023-05-21T12:33:16;5.25;;;2.40;;
56752;SDS011;42627;42.646;23.642;2023-05-21T12:35:21;4.60;;;2.10;;
56752;SDS011;42627;42.646;23.642;2023-05-21T12:37:26;4.28;;;2.10;;
56752;SDS011;42627;42.646;23.642;2023-05-21T12:39:30;4.45;;;2.15;;
56752;SDS011;42627;42.646;23.642;2023-05-21T12:43:56;3.47;;;1.80;;
56752;SDS011;42627;42.646;23.642;2023-05-21T12:45:58;4.95;;;1.85;;
56752;SDS011;42627;42.646;23.642;2023-05-21T12:48:01;5.18;;;2.10;;
56752;SDS011;42627;42.646;23.642;2023-05-21T12:50:03;4.07;;;2.05;;
56752;SDS011;42627;42.646;23.642;2023-05-21T12:52:08;4.93;;;2.40;;
56752;SDS011;42627;42.646;23.642;2023-05-21T12:56:11;7.10;;;2.40;;
56752;SDS011;42627;42.646;23.642;2023-05-21T12:58:12;4.22;;;2.20;;
56752;SDS011;42627;42.646;23.642;2023-05-21T13:00:13;4.32;;;2.20;;
56752;SDS011;42627;42.646;23.642;2023-05-21T13:02:18;3.63;;;1.90;;
56752;SDS011;42627;42.646;23.642;2023-05-21T13:04:22;4.47;;;2.25;;
56752;SDS011;42627;42.646;23.642;2023-05-21T13:06:23;4.03;;;2.03;;
56752;SDS011;42627;42.646;23.642;2023-05-21T13:08:25;5.95;;;2.15;;
56752;SDS011;42627;42.646;23.642;2023-05-21T13:10:26;4.85;;;2.10;;
56752;SDS011;42627;42.646;23.642;2023-05-21T13:12:32;3.67;;;1.98;;
56752;SDS011;42627;42.646;23.642;2023-05-21T13:17:21;5.07;;;2.28;;
56752;SDS011;42627;42.646;23.642;2023-05-21T13:19:23;4.60;;;2.20;;
56752;SDS011;42627;42.646;23.642;2023-05-21T13:21:24;7.10;;;2.40;;
56752;SDS011;42627;42.646;23.642;2023-05-21T13:23:28;5.93;;;2.22;;
56752;SDS011;42627;42.646;23.642;2023-05-21T13:25:29;5.22;;;2.60;;
56752;SDS011;42627;42.646;23.642;2023-05-21T13:27:31;6.28;;;2.40;;
56752;SDS011;42627;42.646;23.642;2023-05-21T13:29:32;6.18;;;2.10;;
56752;SDS011;42627;42.646;23.642;2023-05-21T13:31:34;5.70;;;2.80;;
56752;SDS011;42627;42.646;23.642;2023-05-21T13:33:38;7.95;;;2.47;;
56752;SDS011;42627;42.646;23.642;2023-05-21T13:35:41;9.10;;;2.58;;
56752;SDS011;42627;42.646;23.642;2023-05-21T13:37:44;5.53;;;2.47;;
56752;SDS011;42627;42.646;23.642;2023-05-21T13:39:53;4.97;;;2.60;;
56752;SDS011;42627;42.646;23.642;2023-05-21T13:41:54;5.55;;;2.65;;
56752;SDS011;42627;42.646;23.642;2023-05-21T13:43:55;7.03;;;3.60;;
56752;SDS011;42627;42.646;23.642;2023-05-21T13:45:56;8.25;;;3.80;;
56752;SDS011;42627;42.646;23.642;2023-05-21T13:47:58;7.03;;;2.60;;
56752;SDS011;42627;42.646;23.642;2023-05-21T13:49:59;7.45;;;2.83;;